sensor_id;sensor_type;location;lat;lon;timestamp;P1;P2;P0
47591;PMS5003;33317;33.356;-117.184;2022-08-23T00:01:27;2;2;
47591;PMS5003;33317;33.356;-117.184;2022-08-23T00:03:58;2;2;
47591;PMS5003;33317;33.356;-117.184;2022-08-23T00:06:29;4;4;
47591;PMS5003;33317;33.356;-117.184;2022-08-23T00:08:58;2;2;
47591;PMS5003;33317;33.356;-117.184;2022-08-23T00:11:29;2;2;
47591;PMS5003;33317;33.356;-117.184;2022-08-23T00:14:02;2;2;
47591;PMS5003;33317;33.356;-117.184;2022-08-23T00:16:35;3;3;
47591;PMS5003;33317;33.356;-117.184;2022-08-23T00:19:04;2;2;
47591;PMS5003;33317;33.356;-117.184;2022-08-23T00:21:34;4;3;
47591;PMS5003;33317;33.356;-117.184;2022-08-23T00:24:03;3;3;
47591;PMS5003;33317;33.356;-117.184;2022-08-23T00:26:51;4;3;
47591;PMS5003;33317;33.356;-117.184;2022-08-23T00:29:25;2;2;
47591;PMS5003;33317;33.356;-117.184;2022-08-23T00:31:57;3;3;
47591;PMS5003;33317;33.356;-117.184;2022-08-23T00:34:25;1;1;
47591;PMS5003;33317;33.356;-117.184;2022-08-23T00:36:55;2;2;
47591;PMS5003;33317;33.356;-117.184;2022-08-23T00:39:23;3;2;
47591;PMS5003;33317;33.356;-117.184;2022-08-23T00:41:55;3;3;
47591;PMS5003;33317;33.356;-117.184;2022-08-23T00:44:30;3;3;
47591;PMS5003;33317;33.356;-117.184;2022-08-23T00:47:00;3;3;
47591;PMS5003;33317;33.356;-117.184;2022-08-23T00:49:29;2;2;
47591;PMS5003;33317;33.356;-117.184;2022-08-23T00:52:06;2;2;
47591;PMS5003;33317;33.356;-117.184;2022-08-23T00:54:39;2;2;
47591;PMS5003;33317;33.356;-117.184;2022-08-23T00:57:10;1;1;
47591;PMS5003;33317;33.356;-117.184;2022-08-23T00:59:42;4;4;
47591;PMS5003;33317;33.356;-117.184;2022-08-23T01:02:11;2;2;
47591;PMS5003;33317;33.356;-117.184;2022-08-23T01:04:42;2;2;
47591;PMS5003;33317;33.356;-117.184;2022-08-23T01:07:17;2;2;
47591;PMS5003;33317;33.356;-117.184;2022-08-23T01:09:58;4;4;
47591;PMS5003;33317;33.356;-117.184;2022-08-23T01:12:40;4;4;
47591;PMS5003;33317;33.356;-117.184;2022-08-23T01:15:20;2;2;
47591;PMS5003;33317;33.356;-117.184;2022-08-23T01:17:53;4;4;
47591;PMS5003;33317;33.356;-117.184;2022-08-23T01:20:37;4;4;
47591;PMS5003;33317;33.356;-117.184;2022-08-23T01:23:22;3;3;
47591;PMS5003;33317;33.356;-117.184;2022-08-23T01:25:55;3;3;
47591;PMS5003;33317;33.356;-117.184;2022-08-23T01:28:24;2;2;
47591;PMS5003;33317;33.356;-117.184;2022-08-23T01:30:53;3;3;
47591;PMS5003;33317;33.356;-117.184;2022-08-23T01:33:21;3;2;
47591;PMS5003;33317;33.356;-117.184;2022-08-23T01:35:50;2;2;
47591;PMS5003;33317;33.356;-117.184;2022-08-23T01:38:21;2;2;
47591;PMS5003;33317;33.356;-117.184;2022-08-23T01:40:51;3;3;
47591;PMS5003;33317;33.356;-117.184;2022-08-23T01:43:19;3;3;
47591;PMS5003;33317;33.356;-117.184;2022-08-23T01:45:48;3;3;
47591;PMS5003;33317;33.356;-117.184;2022-08-23T01:48:18;3;3;
47591;PMS5003;33317;33.356;-117.184;2022-08-23T01:50:52;2;2;
47591;PMS5003;33317;33.356;-117.184;2022-08-23T01:53:26;1;1;
47591;PMS5003;33317;33.356;-117.184;2022-08-23T01:55:58;1;1;
47591;PMS5003;33317;33.356;-117.184;2022-08-23T01:58:28;3;2;
47591;PMS5003;33317;33.356;-117.184;2022-08-23T02:00:59;1;1;
47591;PMS5003;33317;33.356;-117.184;2022-08-23T02:03:27;2;2;
47591;PMS5003;33317;33.356;-117.184;2022-08-23T02:05:57;2;1;
47591;PMS5003;33317;33.356;-117.184;2022-08-23T02:08:30;4;3;
47591;PMS5003;33317;33.356;-117.184;2022-08-23T02:10:58;2;2;
47591;PMS5003;33317;33.356;-117.184;2022-08-23T02:13:33;2;2;
47591;PMS5003;33317;33.356;-117.184;2022-08-23T02:16:02;2;2;
47591;PMS5003;33317;33.356;-117.184;2022-08-23T02:18:31;3;3;
47591;PMS5003;33317;33.356;-117.184;2022-08-23T02:21:02;1;1;
47591;PMS5003;33317;33.356;-117.184;2022-08-23T02:23:31;2;2;
47591;PMS5003;33317;33.356;-117.184;2022-08-23T02:26:00;3;2;
47591;PMS5003;33317;33.356;-117.184;2022-08-23T02:28:29;2;2;
47591;PMS5003;33317;33.356;-117.184;2022-08-23T02:30:57;3;3;
47591;PMS5003;33317;33.356;-117.184;2022-08-23T02:33:26;1;1;
47591;PMS5003;33317;33.356;-117.184;2022-08-23T02:35:55;6;5;
47591;PMS5003;33317;33.356;-117.184;2022-08-23T02:38:24;1;1;
47591;PMS5003;33317;33.356;-117.184;2022-08-23T02:40:53;1;1;
47591;PMS5003;33317;33.356;-117.184;2022-08-23T02:43:23;4;4;
47591;PMS5003;33317;33.356;-117.184;2022-08-23T02:45:51;4;2;
47591;PMS5003;33317;33.356;-117.184;2022-08-23T02:48:20;1;1;
47591;PMS5003;33317;33.356;-117.184;2022-08-23T02:50:50;1;1;
47591;PMS5003;33317;33.356;-117.184;2022-08-23T02:53:20;3;3;
47591;PMS5003;33317;33.356;-117.184;2022-08-23T02:55:48;1;1;
47591;PMS5003;33317;33.356;-117.184;2022-08-23T02:58:17;3;3;
47591;PMS5003;33317;33.356;-117.184;2022-08-23T03:00:45;2;2;
47591;PMS5003;33317;33.356;-117.184;2022-08-23T03:03:15;2;2;
47591;PMS5003;33317;33.356;-117.184;2022-08-23T03:05:45;3;2;
47591;PMS5003;33317;33.356;-117.184;2022-08-23T03:08:15;5;3;
47591;PMS5003;33317;33.356;-117.184;2022-08-23T03:10:45;0;0;
47591;PMS5003;33317;33.356;-117.184;2022-08-23T03:13:16;3;3;
47591;PMS5003;33317;33.356;-117.184;2022-08-23T03:15:47;2;1;
47591;PMS5003;33317;33.356;-117.184;2022-08-23T03:18:16;2;2;
47591;PMS5003;33317;33.356;-117.184;2022-08-23T03:20:46;3;3;
47591;PMS5003;33317;33.356;-117.184;2022-08-23T03:23:18;2;2;
47591;PMS5003;33317;33.356;-117.184;2022-08-23T03:25:47;3;1;
47591;PMS5003;33317;33.356;-117.184;2022-08-23T03:28:28;2;2;
47591;PMS5003;33317;33.356;-117.184;2022-08-23T03:31:13;2;2;
47591;PMS5003;33317;33.356;-117.184;2022-08-23T03:33:48;2;2;
47591;PMS5003;33317;33.356;-117.184;2022-08-23T03:36:18;2;2;
47591;PMS5003;33317;33.356;-117.184;2022-08-23T03:38:51;2;2;
47591;PMS5003;33317;33.356;-117.184;2022-08-23T03:41:20;2;2;
47591;PMS5003;33317;33.356;-117.184;2022-08-23T03:43:53;1;1;
47591;PMS5003;33317;33.356;-117.184;2022-08-23T03:46:24;2;2;
47591;PMS5003;33317;33.356;-117.184;2022-08-23T03:48:56;0;0;
47591;PMS5003;33317;33.356;-117.184;2022-08-23T03:51:27;4;3;
47591;PMS5003;33317;33.356;-117.184;2022-08-23T03:53:57;3;2;
47591;PMS5003;33317;33.356;-117.184;2022-08-23T03:56:32;4;3;
47591;PMS5003;33317;33.356;-117.184;2022-08-23T03:59:04;2;1;
47591;PMS5003;33317;33.356;-117.184;2022-08-23T04:01:35;3;3;
47591;PMS5003;33317;33.356;-117.184;2022-08-23T04:04:04;3;3;
47591;PMS5003;33317;33.356;-117.184;2022-08-23T04:06:34;2;2;
47591;PMS5003;33317;33.356;-117.184;2022-08-23T04:09:05;3;3;
47591;PMS5003;33317;33.356;-117.184;2022-08-23T04:11:33;2;2;
47591;PMS5003;33317;33.356;-117.184;2022-08-23T04:14:08;2;2;
47591;PMS5003;33317;33.356;-117.184;2022-08-23T04:16:36;3;3;
47591;PMS5003;33317;33.356;-117.184;2022-08-23T04:19:07;3;3;
47591;PMS5003;33317;33.356;-117.184;2022-08-23T04:21:40;3;2;
47591;PMS5003;33317;33.356;-117.184;2022-08-23T04:24:18;3;3;
47591;PMS5003;33317;33.356;-117.184;2022-08-23T04:26:50;2;2;
47591;PMS5003;33317;33.356;-117.184;2022-08-23T04:29:28;3;3;
47591;PMS5003;33317;33.356;-117.184;2022-08-23T04:31:59;4;3;
47591;PMS5003;33317;33.356;-117.184;2022-08-23T04:34:28;3;3;
47591;PMS5003;33317;33.356;-117.184;2022-08-23T04:36:58;2;2;
47591;PMS5003;33317;33.356;-117.184;2022-08-23T04:39:35;2;2;
47591;PMS5003;33317;33.356;-117.184;2022-08-23T04:42:03;2;2;
47591;PMS5003;33317;33.356;-117.184;2022-08-23T04:44:33;3;3;
47591;PMS5003;33317;33.356;-117.184;2022-08-23T04:47:02;2;2;
47591;PMS5003;33317;33.356;-117.184;2022-08-23T04:49:32;2;2;
47591;PMS5003;33317;33.356;-117.184;2022-08-23T04:52:00;2;2;
47591;PMS5003;33317;33.356;-117.184;2022-08-23T04:54:31;3;3;
47591;PMS5003;33317;33.356;-117.184;2022-08-23T04:57:00;4;4;
47591;PMS5003;33317;33.356;-117.184;2022-08-23T04:59:28;2;2;
47591;PMS5003;33317;33.356;-117.184;2022-08-23T05:01:57;2;2;
47591;PMS5003;33317;33.356;-117.184;2022-08-23T05:04:27;3;3;
47591;PMS5003;33317;33.356;-117.184;2022-08-23T05:06:55;4;3;
47591;PMS5003;33317;33.356;-117.184;2022-08-23T05:09:29;2;2;
47591;PMS5003;33317;33.356;-117.184;2022-08-23T05:11:58;2;2;
47591;PMS5003;33317;33.356;-117.184;2022-08-23T05:14:26;2;2;
47591;PMS5003;33317;33.356;-117.184;2022-08-23T05:16:55;3;3;
47591;PMS5003;33317;33.356;-117.184;2022-08-23T05:19:25;3;3;
47591;PMS5003;33317;33.356;-117.184;2022-08-23T05:21:53;2;1;
47591;PMS5003;33317;33.356;-117.184;2022-08-23T05:24:32;4;2;
47591;PMS5003;33317;33.356;-117.184;2022-08-23T05:27:01;4;4;
47591;PMS5003;33317;33.356;-117.184;2022-08-23T05:29:30;2;2;
47591;PMS5003;33317;33.356;-117.184;2022-08-23T05:31:59;2;2;
47591;PMS5003;33317;33.356;-117.184;2022-08-23T05:34:27;2;2;
47591;PMS5003;33317;33.356;-117.184;2022-08-23T05:36:56;2;2;
47591;PMS5003;33317;33.356;-117.184;2022-08-23T05:39:25;3;3;
47591;PMS5003;33317;33.356;-117.184;2022-08-23T05:41:55;2;2;
47591;PMS5003;33317;33.356;-117.184;2022-08-23T05:44:24;2;2;
47591;PMS5003;33317;33.356;-117.184;2022-08-23T05:46:52;3;2;
47591;PMS5003;33317;33.356;-117.184;2022-08-23T05:49:21;3;3;
47591;PMS5003;33317;33.356;-117.184;2022-08-23T05:51:50;2;2;
47591;PMS5003;33317;33.356;-117.184;2022-08-23T05:54:18;6;6;
47591;PMS5003;33317;33.356;-117.184;2022-08-23T05:56:47;3;3;
47591;PMS5003;33317;33.356;-117.184;2022-08-23T05:59:15;4;4;
47591;PMS5003;33317;33.356;-117.184;2022-08-23T06:01:43;3;3;
47591;PMS5003;33317;33.356;-117.184;2022-08-23T06:04:12;3;3;
47591;PMS5003;33317;33.356;-117.184;2022-08-23T06:06:41;4;4;
47591;PMS5003;33317;33.356;-117.184;2022-08-23T06:09:11;2;2;
47591;PMS5003;33317;33.356;-117.184;2022-08-23T06:11:41;2;2;
47591;PMS5003;33317;33.356;-117.184;2022-08-23T06:14:11;4;4;
47591;PMS5003;33317;33.356;-117.184;2022-08-23T06:16:40;5;5;
47591;PMS5003;33317;33.356;-117.184;2022-08-23T06:19:10;5;5;
47591;PMS5003;33317;33.356;-117.184;2022-08-23T06:21:41;5;5;
47591;PMS5003;33317;33.356;-117.184;2022-08-23T06:24:09;6;5;
47591;PMS5003;33317;33.356;-117.184;2022-08-23T06:26:39;3;3;
47591;PMS5003;33317;33.356;-117.184;2022-08-23T06:29:10;5;5;
47591;PMS5003;33317;33.356;-117.184;2022-08-23T06:31:41;5;4;
47591;PMS5003;33317;33.356;-117.184;2022-08-23T06:34:19;3;3;
47591;PMS5003;33317;33.356;-117.184;2022-08-23T06:36:51;6;4;
47591;PMS5003;33317;33.356;-117.184;2022-08-23T06:39:23;4;4;
47591;PMS5003;33317;33.356;-117.184;2022-08-23T06:41:52;6;6;
47591;PMS5003;33317;33.356;-117.184;2022-08-23T06:44:25;7;7;
47591;PMS5003;33317;33.356;-117.184;2022-08-23T06:46:54;5;5;
47591;PMS5003;33317;33.356;-117.184;2022-08-23T06:49:23;3;3;
47591;PMS5003;33317;33.356;-117.184;2022-08-23T06:51:53;5;5;
47591;PMS5003;33317;33.356;-117.184;2022-08-23T06:54:25;5;5;
47591;PMS5003;33317;33.356;-117.184;2022-08-23T06:56:55;8;7;
47591;PMS5003;33317;33.356;-117.184;2022-08-23T06:59:24;5;5;
47591;PMS5003;33317;33.356;-117.184;2022-08-23T07:01:54;6;6;
47591;PMS5003;33317;33.356;-117.184;2022-08-23T07:04:26;3;3;
47591;PMS5003;33317;33.356;-117.184;2022-08-23T07:06:56;5;4;
47591;PMS5003;33317;33.356;-117.184;2022-08-23T07:09:25;6;6;
47591;PMS5003;33317;33.356;-117.184;2022-08-23T07:11:54;6;6;
47591;PMS5003;33317;33.356;-117.184;2022-08-23T07:14:23;6;5;
47591;PMS5003;33317;33.356;-117.184;2022-08-23T07:16:53;5;4;
47591;PMS5003;33317;33.356;-117.184;2022-08-23T07:19:24;6;5;
47591;PMS5003;33317;33.356;-117.184;2022-08-23T07:21:53;4;4;
47591;PMS5003;33317;33.356;-117.184;2022-08-23T07:24:22;7;5;
47591;PMS5003;33317;33.356;-117.184;2022-08-23T07:26:51;5;4;
47591;PMS5003;33317;33.356;-117.184;2022-08-23T07:29:20;5;5;
47591;PMS5003;33317;33.356;-117.184;2022-08-23T07:31:49;4;4;
47591;PMS5003;33317;33.356;-117.184;2022-08-23T07:34:19;8;7;
47591;PMS5003;33317;33.356;-117.184;2022-08-23T07:36:49;8;8;
47591;PMS5003;33317;33.356;-117.184;2022-08-23T07:39:20;4;4;
47591;PMS5003;33317;33.356;-117.184;2022-08-23T07:41:49;5;4;
47591;PMS5003;33317;33.356;-117.184;2022-08-23T07:44:18;4;4;
47591;PMS5003;33317;33.356;-117.184;2022-08-23T07:46:46;6;4;
47591;PMS5003;33317;33.356;-117.184;2022-08-23T07:49:14;5;5;
47591;PMS5003;33317;33.356;-117.184;2022-08-23T07:51:45;5;4;
47591;PMS5003;33317;33.356;-117.184;2022-08-23T07:54:16;7;7;
47591;PMS5003;33317;33.356;-117.184;2022-08-23T07:56:45;5;5;
47591;PMS5003;33317;33.356;-117.184;2022-08-23T07:59:14;5;5;
47591;PMS5003;33317;33.356;-117.184;2022-08-23T08:01:43;4;4;
47591;PMS5003;33317;33.356;-117.184;2022-08-23T08:04:11;3;3;
47591;PMS5003;33317;33.356;-117.184;2022-08-23T08:06:41;7;7;
47591;PMS5003;33317;33.356;-117.184;2022-08-23T08:09:11;4;4;
47591;PMS5003;33317;33.356;-117.184;2022-08-23T08:11:43;8;7;
47591;PMS5003;33317;33.356;-117.184;2022-08-23T08:14:16;7;6;
47591;PMS5003;33317;33.356;-117.184;2022-08-23T08:16:45;6;6;
47591;PMS5003;33317;33.356;-117.184;2022-08-23T08:19:16;7;6;
47591;PMS5003;33317;33.356;-117.184;2022-08-23T08:21:44;7;6;
47591;PMS5003;33317;33.356;-117.184;2022-08-23T08:24:13;4;4;
47591;PMS5003;33317;33.356;-117.184;2022-08-23T08:26:43;5;5;
47591;PMS5003;33317;33.356;-117.184;2022-08-23T08:29:12;11;9;
47591;PMS5003;33317;33.356;-117.184;2022-08-23T08:31:41;5;5;
47591;PMS5003;33317;33.356;-117.184;2022-08-23T08:34:11;5;4;
47591;PMS5003;33317;33.356;-117.184;2022-08-23T08:36:41;6;4;
47591;PMS5003;33317;33.356;-117.184;2022-08-23T08:39:12;5;5;
47591;PMS5003;33317;33.356;-117.184;2022-08-23T08:41:45;5;5;
47591;PMS5003;33317;33.356;-117.184;2022-08-23T08:44:26;4;4;
47591;PMS5003;33317;33.356;-117.184;2022-08-23T08:47:06;5;5;
47591;PMS5003;33317;33.356;-117.184;2022-08-23T08:49:41;9;8;
47591;PMS5003;33317;33.356;-117.184;2022-08-23T08:52:16;6;5;
47591;PMS5003;33317;33.356;-117.184;2022-08-23T08:54:48;7;6;
47591;PMS5003;33317;33.356;-117.184;2022-08-23T08:57:22;6;4;
47591;PMS5003;33317;33.356;-117.184;2022-08-23T08:59:53;4;4;
47591;PMS5003;33317;33.356;-117.184;2022-08-23T09:02:26;5;5;
47591;PMS5003;33317;33.356;-117.184;2022-08-23T09:04:57;8;7;
47591;PMS5003;33317;33.356;-117.184;2022-08-23T09:07:29;6;4;
47591;PMS5003;33317;33.356;-117.184;2022-08-23T09:10:14;3;3;
47591;PMS5003;33317;33.356;-117.184;2022-08-23T09:13:01;9;8;
47591;PMS5003;33317;33.356;-117.184;2022-08-23T09:15:45;7;7;
47591;PMS5003;33317;33.356;-117.184;2022-08-23T09:18:21;8;7;
47591;PMS5003;33317;33.356;-117.184;2022-08-23T09:20:51;7;5;
47591;PMS5003;33317;33.356;-117.184;2022-08-23T09:23:22;5;5;
47591;PMS5003;33317;33.356;-117.184;2022-08-23T09:25:57;6;6;
47591;PMS5003;33317;33.356;-117.184;2022-08-23T09:28:27;5;4;
47591;PMS5003;33317;33.356;-117.184;2022-08-23T09:31:00;5;5;
47591;PMS5003;33317;33.356;-117.184;2022-08-23T09:33:37;6;6;
47591;PMS5003;33317;33.356;-117.184;2022-08-23T09:36:13;8;6;
47591;PMS5003;33317;33.356;-117.184;2022-08-23T09:38:50;7;7;
47591;PMS5003;33317;33.356;-117.184;2022-08-23T09:41:23;6;4;
47591;PMS5003;33317;33.356;-117.184;2022-08-23T09:43:54;4;4;
47591;PMS5003;33317;33.356;-117.184;2022-08-23T09:46:25;9;7;
47591;PMS5003;33317;33.356;-117.184;2022-08-23T09:48:56;2;2;
47591;PMS5003;33317;33.356;-117.184;2022-08-23T09:51:28;8;8;
47591;PMS5003;33317;33.356;-117.184;2022-08-23T09:54:03;6;6;
47591;PMS5003;33317;33.356;-117.184;2022-08-23T09:56:35;6;4;
47591;PMS5003;33317;33.356;-117.184;2022-08-23T09:59:29;7;7;
47591;PMS5003;33317;33.356;-117.184;2022-08-23T10:02:05;4;4;
47591;PMS5003;33317;33.356;-117.184;2022-08-23T10:04:42;3;3;
47591;PMS5003;33317;33.356;-117.184;2022-08-23T10:07:26;4;4;
47591;PMS5003;33317;33.356;-117.184;2022-08-23T10:10:33;5;4;
47591;PMS5003;33317;33.356;-117.184;2022-08-23T10:13:06;7;7;
47591;PMS5003;33317;33.356;-117.184;2022-08-23T10:15:41;5;5;
47591;PMS5003;33317;33.356;-117.184;2022-08-23T10:18:18;4;4;
47591;PMS5003;33317;33.356;-117.184;2022-08-23T10:21:00;5;4;
47591;PMS5003;33317;33.356;-117.184;2022-08-23T10:23:38;6;6;
47591;PMS5003;33317;33.356;-117.184;2022-08-23T10:26:25;6;6;
47591;PMS5003;33317;33.356;-117.184;2022-08-23T10:29:00;4;4;
47591;PMS5003;33317;33.356;-117.184;2022-08-23T10:31:40;7;6;
47591;PMS5003;33317;33.356;-117.184;2022-08-23T10:34:18;7;6;
47591;PMS5003;33317;33.356;-117.184;2022-08-23T10:37:06;8;7;
47591;PMS5003;33317;33.356;-117.184;2022-08-23T10:39:51;6;5;
47591;PMS5003;33317;33.356;-117.184;2022-08-23T10:42:31;6;6;
47591;PMS5003;33317;33.356;-117.184;2022-08-23T10:45:09;9;7;
47591;PMS5003;33317;33.356;-117.184;2022-08-23T10:47:50;5;5;
47591;PMS5003;33317;33.356;-117.184;2022-08-23T10:50:31;5;5;
47591;PMS5003;33317;33.356;-117.184;2022-08-23T10:53:11;6;6;
47591;PMS5003;33317;33.356;-117.184;2022-08-23T10:55:44;5;5;
47591;PMS5003;33317;33.356;-117.184;2022-08-23T10:58:18;7;7;
47591;PMS5003;33317;33.356;-117.184;2022-08-23T11:00:51;5;5;
47591;PMS5003;33317;33.356;-117.184;2022-08-23T11:03:24;4;4;
47591;PMS5003;33317;33.356;-117.184;2022-08-23T11:07:12;7;7;
47591;PMS5003;33317;33.356;-117.184;2022-08-23T11:09:48;9;8;
47591;PMS5003;33317;33.356;-117.184;2022-08-23T11:12:22;6;6;
47591;PMS5003;33317;33.356;-117.184;2022-08-23T11:15:26;5;5;
47591;PMS5003;33317;33.356;-117.184;2022-08-23T11:18:04;6;6;
47591;PMS5003;33317;33.356;-117.184;2022-08-23T11:21:08;5;5;
47591;PMS5003;33317;33.356;-117.184;2022-08-23T11:25:38;6;4;
47591;PMS5003;33317;33.356;-117.184;2022-08-23T11:28:29;9;9;
47591;PMS5003;33317;33.356;-117.184;2022-08-23T11:31:17;6;6;
47591;PMS5003;33317;33.356;-117.184;2022-08-23T11:33:50;6;6;
47591;PMS5003;33317;33.356;-117.184;2022-08-23T11:36:30;5;3;
47591;PMS5003;33317;33.356;-117.184;2022-08-23T11:39:02;8;8;
47591;PMS5003;33317;33.356;-117.184;2022-08-23T11:41:35;6;5;
47591;PMS5003;33317;33.356;-117.184;2022-08-23T11:44:32;6;5;
47591;PMS5003;33317;33.356;-117.184;2022-08-23T11:47:06;7;7;
47591;PMS5003;33317;33.356;-117.184;2022-08-23T11:49:43;6;6;
47591;PMS5003;33317;33.356;-117.184;2022-08-23T11:52:25;6;6;
47591;PMS5003;33317;33.356;-117.184;2022-08-23T11:55:09;8;8;
47591;PMS5003;33317;33.356;-117.184;2022-08-23T11:57:53;8;6;
47591;PMS5003;33317;33.356;-117.184;2022-08-23T12:00:46;7;7;
47591;PMS5003;33317;33.356;-117.184;2022-08-23T12:03:23;6;6;
47591;PMS5003;33317;33.356;-117.184;2022-08-23T12:06:12;6;6;
47591;PMS5003;33317;33.356;-117.184;2022-08-23T12:09:50;6;6;
47591;PMS5003;33317;33.356;-117.184;2022-08-23T12:12:25;4;4;
47591;PMS5003;33317;33.356;-117.184;2022-08-23T12:14:57;6;6;
47591;PMS5003;33317;33.356;-117.184;2022-08-23T12:18:33;6;5;
47591;PMS5003;33317;33.356;-117.184;2022-08-23T12:21:05;5;5;
47591;PMS5003;33317;33.356;-117.184;2022-08-23T12:23:43;8;8;
47591;PMS5003;33317;33.356;-117.184;2022-08-23T12:26:26;4;4;
47591;PMS5003;33317;33.356;-117.184;2022-08-23T12:29:03;6;5;
47591;PMS5003;33317;33.356;-117.184;2022-08-23T12:31:45;6;5;
47591;PMS5003;33317;33.356;-117.184;2022-08-23T12:34:24;8;8;
47591;PMS5003;33317;33.356;-117.184;2022-08-23T12:37:01;7;7;
47591;PMS5003;33317;33.356;-117.184;2022-08-23T12:39:47;6;6;
47591;PMS5003;33317;33.356;-117.184;2022-08-23T12:42:17;6;6;
47591;PMS5003;33317;33.356;-117.184;2022-08-23T12:45:02;7;7;
47591;PMS5003;33317;33.356;-117.184;2022-08-23T12:47:38;6;6;
47591;PMS5003;33317;33.356;-117.184;2022-08-23T12:50:20;7;6;
47591;PMS5003;33317;33.356;-117.184;2022-08-23T12:52:56;9;7;
47591;PMS5003;33317;33.356;-117.184;2022-08-23T12:55:29;7;6;
47591;PMS5003;33317;33.356;-117.184;2022-08-23T12:58:02;6;5;
47591;PMS5003;33317;33.356;-117.184;2022-08-23T13:00:32;5;5;
47591;PMS5003;33317;33.356;-117.184;2022-08-23T13:03:03;8;7;
47591;PMS5003;33317;33.356;-117.184;2022-08-23T13:05:37;5;5;
47591;PMS5003;33317;33.356;-117.184;2022-08-23T13:08:09;5;5;
47591;PMS5003;33317;33.356;-117.184;2022-08-23T13:10:42;8;5;
47591;PMS5003;33317;33.356;-117.184;2022-08-23T13:13:12;9;7;
47591;PMS5003;33317;33.356;-117.184;2022-08-23T13:15:46;9;9;
47591;PMS5003;33317;33.356;-117.184;2022-08-23T13:18:22;5;5;
47591;PMS5003;33317;33.356;-117.184;2022-08-23T13:21:15;5;5;
47591;PMS5003;33317;33.356;-117.184;2022-08-23T13:23:51;6;6;
47591;PMS5003;33317;33.356;-117.184;2022-08-23T13:26:22;5;5;
47591;PMS5003;33317;33.356;-117.184;2022-08-23T13:29:10;5;5;
47591;PMS5003;33317;33.356;-117.184;2022-08-23T13:31:49;8;6;
47591;PMS5003;33317;33.356;-117.184;2022-08-23T13:34:38;6;6;
47591;PMS5003;33317;33.356;-117.184;2022-08-23T13:37:15;5;5;
47591;PMS5003;33317;33.356;-117.184;2022-08-23T13:39:48;7;7;
47591;PMS5003;33317;33.356;-117.184;2022-08-23T13:42:27;7;6;
47591;PMS5003;33317;33.356;-117.184;2022-08-23T13:45:06;9;9;
47591;PMS5003;33317;33.356;-117.184;2022-08-23T13:47:43;7;5;
47591;PMS5003;33317;33.356;-117.184;2022-08-23T13:50:15;7;7;
47591;PMS5003;33317;33.356;-117.184;2022-08-23T13:52:49;5;5;
47591;PMS5003;33317;33.356;-117.184;2022-08-23T13:55:17;6;6;
47591;PMS5003;33317;33.356;-117.184;2022-08-23T13:57:45;8;6;
47591;PMS5003;33317;33.356;-117.184;2022-08-23T14:00:15;6;5;
47591;PMS5003;33317;33.356;-117.184;2022-08-23T14:02:44;6;5;
47591;PMS5003;33317;33.356;-117.184;2022-08-23T14:05:13;7;7;
47591;PMS5003;33317;33.356;-117.184;2022-08-23T14:07:44;5;4;
47591;PMS5003;33317;33.356;-117.184;2022-08-23T14:10:14;7;6;
47591;PMS5003;33317;33.356;-117.184;2022-08-23T14:12:42;5;5;
47591;PMS5003;33317;33.356;-117.184;2022-08-23T14:15:14;5;5;
47591;PMS5003;33317;33.356;-117.184;2022-08-23T14:17:46;6;6;
47591;PMS5003;33317;33.356;-117.184;2022-08-23T14:20:18;8;6;
47591;PMS5003;33317;33.356;-117.184;2022-08-23T14:22:49;5;5;
47591;PMS5003;33317;33.356;-117.184;2022-08-23T14:25:17;7;6;
47591;PMS5003;33317;33.356;-117.184;2022-08-23T14:27:46;5;5;
47591;PMS5003;33317;33.356;-117.184;2022-08-23T14:30:21;7;7;
47591;PMS5003;33317;33.356;-117.184;2022-08-23T14:32:53;7;7;
47591;PMS5003;33317;33.356;-117.184;2022-08-23T14:35:22;5;5;
47591;PMS5003;33317;33.356;-117.184;2022-08-23T14:37:51;5;4;
47591;PMS5003;33317;33.356;-117.184;2022-08-23T14:40:19;5;5;
47591;PMS5003;33317;33.356;-117.184;2022-08-23T14:42:48;7;7;
47591;PMS5003;33317;33.356;-117.184;2022-08-23T14:45:16;8;7;
47591;PMS5003;33317;33.356;-117.184;2022-08-23T14:47:44;10;5;
47591;PMS5003;33317;33.356;-117.184;2022-08-23T14:50:14;9;8;
47591;PMS5003;33317;33.356;-117.184;2022-08-23T14:52:43;8;8;
47591;PMS5003;33317;33.356;-117.184;2022-08-23T14:55:14;7;7;
47591;PMS5003;33317;33.356;-117.184;2022-08-23T14:57:42;4;4;
47591;PMS5003;33317;33.356;-117.184;2022-08-23T15:00:11;7;7;
47591;PMS5003;33317;33.356;-117.184;2022-08-23T15:02:41;6;6;
47591;PMS5003;33317;33.356;-117.184;2022-08-23T15:05:10;8;8;
47591;PMS5003;33317;33.356;-117.184;2022-08-23T15:07:39;7;6;
47591;PMS5003;33317;33.356;-117.184;2022-08-23T15:10:09;6;6;
47591;PMS5003;33317;33.356;-117.184;2022-08-23T15:12:38;7;7;
47591;PMS5003;33317;33.356;-117.184;2022-08-23T15:15:09;4;4;
47591;PMS5003;33317;33.356;-117.184;2022-08-23T15:17:43;7;7;
47591;PMS5003;33317;33.356;-117.184;2022-08-23T15:20:14;7;6;
47591;PMS5003;33317;33.356;-117.184;2022-08-23T15:22:43;4;4;
47591;PMS5003;33317;33.356;-117.184;2022-08-23T15:25:12;7;7;
47591;PMS5003;33317;33.356;-117.184;2022-08-23T15:27:42;7;7;
47591;PMS5003;33317;33.356;-117.184;2022-08-23T15:30:12;7;7;
47591;PMS5003;33317;33.356;-117.184;2022-08-23T15:32:41;9;8;
47591;PMS5003;33317;33.356;-117.184;2022-08-23T15:35:10;9;9;
47591;PMS5003;33317;33.356;-117.184;2022-08-23T15:37:38;10;10;
47591;PMS5003;33317;33.356;-117.184;2022-08-23T15:40:08;7;7;
47591;PMS5003;33317;33.356;-117.184;2022-08-23T15:42:40;6;5;
47591;PMS5003;33317;33.356;-117.184;2022-08-23T15:45:09;8;8;
47591;PMS5003;33317;33.356;-117.184;2022-08-23T15:47:41;7;6;
47591;PMS5003;33317;33.356;-117.184;2022-08-23T15:50:12;10;9;
47591;PMS5003;33317;33.356;-117.184;2022-08-23T15:52:42;13;10;
47591;PMS5003;33317;33.356;-117.184;2022-08-23T15:55:11;7;7;
47591;PMS5003;33317;33.356;-117.184;2022-08-23T15:57:43;6;6;
47591;PMS5003;33317;33.356;-117.184;2022-08-23T16:00:14;8;7;
47591;PMS5003;33317;33.356;-117.184;2022-08-23T16:02:44;9;8;
47591;PMS5003;33317;33.356;-117.184;2022-08-23T16:05:13;10;9;
47591;PMS5003;33317;33.356;-117.184;2022-08-23T16:07:41;7;7;
47591;PMS5003;33317;33.356;-117.184;2022-08-23T16:10:17;7;7;
47591;PMS5003;33317;33.356;-117.184;2022-08-23T16:12:45;12;12;
47591;PMS5003;33317;33.356;-117.184;2022-08-23T16:15:13;9;9;
47591;PMS5003;33317;33.356;-117.184;2022-08-23T16:17:41;7;7;
47591;PMS5003;33317;33.356;-117.184;2022-08-23T16:20:10;6;6;
47591;PMS5003;33317;33.356;-117.184;2022-08-23T16:22:38;8;8;
47591;PMS5003;33317;33.356;-117.184;2022-08-23T16:25:07;4;4;
47591;PMS5003;33317;33.356;-117.184;2022-08-23T16:27:36;6;5;
47591;PMS5003;33317;33.356;-117.184;2022-08-23T16:30:05;5;5;
47591;PMS5003;33317;33.356;-117.184;2022-08-23T16:32:34;6;6;
47591;PMS5003;33317;33.356;-117.184;2022-08-23T16:35:03;5;5;
47591;PMS5003;33317;33.356;-117.184;2022-08-23T16:37:32;4;4;
47591;PMS5003;33317;33.356;-117.184;2022-08-23T16:40:00;6;5;
47591;PMS5003;33317;33.356;-117.184;2022-08-23T16:42:28;6;6;